createdAt,value
2024-05-09T00:00:22.145Z,38.00
2024-05-09T00:01:20.436Z,75.30
2024-05-09T00:01:53.532Z,84.10
2024-05-09T00:02:27.082Z,23.50
2024-05-09T00:03:01.089Z,77.70
2024-05-09T00:03:34.480Z,49.90
2024-05-09T00:04:07.930Z,46.80
2024-05-09T00:04:41.294Z,38.90
2024-05-09T00:05:14.737Z,39.90
2024-05-09T00:05:48.397Z,19.90
2024-05-09T00:06:21.676Z,28.50
2024-05-09T00:06:55.065Z,33.10
2024-05-09T00:07:28.311Z,13.00
2024-05-09T00:08:01.781Z,13.90
2024-05-09T00:08:35.462Z,14.60
2024-05-09T00:09:08.890Z,41.10
2024-05-09T00:09:41.920Z,14.00
2024-05-09T00:10:25.048Z,14.00
2024-05-09T00:11:02.920Z,13.70
2024-05-09T00:11:36.211Z,13.50
2024-05-09T00:12:10.092Z,13.30
2024-05-09T00:12:44.566Z,12.40
2024-05-09T00:13:18.344Z,13.30
2024-05-09T00:13:51.481Z,13.70
2024-05-09T00:14:24.731Z,13.60
2024-05-09T00:14:58.448Z,12.90
2024-05-09T00:15:33.156Z,14.20
2024-05-09T00:16:07.275Z,12.40
2024-05-09T00:16:40.561Z,13.00
2024-05-09T00:17:13.860Z,12.90
2024-05-09T00:17:47.203Z,13.70
2024-05-09T00:18:20.507Z,12.40
2024-05-09T00:18:54.260Z,13.00
2024-05-09T00:19:27.844Z,16.00
2024-05-09T00:20:01.271Z,13.60
2024-05-09T00:20:39.039Z,12.40
2024-05-09T00:21:14.311Z,62.80
2024-05-09T00:21:47.588Z,491.60
2024-05-09T00:22:20.706Z,106.50
2024-05-09T00:22:54.079Z,94.20
2024-05-09T00:23:27.292Z,76.10
2024-05-09T00:24:00.589Z,235.90
2024-05-09T00:24:33.875Z,147.70
2024-05-09T00:25:08.918Z,17.80
2024-05-09T00:25:45.356Z,13.40
2024-05-09T00:26:18.754Z,112.00
2024-05-09T00:26:51.948Z,31.90
2024-05-09T00:27:25.407Z,53.60
2024-05-09T00:27:58.999Z,168.40
2024-05-09T00:28:34.375Z,85.40
2024-05-09T00:29:07.616Z,201.30
2024-05-09T00:29:40.819Z,231.70
2024-05-09T00:30:21.438Z,114.50
2024-05-09T00:31:02.893Z,61.60
2024-05-09T00:31:35.897Z,25.80
2024-05-09T00:32:09.094Z,12.90
2024-05-09T00:32:42.560Z,14.30
2024-05-09T00:33:16.121Z,17.50
2024-05-09T00:33:49.636Z,24.00
2024-05-09T00:34:24.183Z,21.30
2024-05-09T00:34:57.588Z,17.20
2024-05-09T00:35:33.706Z,21.40
2024-05-09T00:36:08.258Z,26.80
2024-05-09T00:36:41.917Z,14.70
2024-05-09T00:37:16.904Z,23.20
2024-05-09T00:37:50.569Z,42.90
2024-05-09T00:38:23.983Z,224.30
2024-05-09T00:38:58.337Z,385.10
2024-05-09T00:39:31.648Z,64.70
2024-05-09T00:40:07.429Z,126.80
2024-05-09T00:40:43.870Z,229.20
2024-05-09T00:41:19.662Z,267.10
2024-05-09T00:41:53.312Z,34.60
2024-05-09T00:42:26.628Z,37.60
2024-05-09T00:42:59.766Z,104.10
2024-05-09T00:43:33.036Z,40.20
2024-05-09T00:44:06.444Z,36.10
2024-05-09T00:44:40.131Z,42.80
2024-05-09T00:45:13.488Z,14.50
2024-05-09T00:45:47.181Z,63.10
2024-05-09T00:46:21.252Z,36.10
2024-05-09T00:46:56.328Z,16.20
2024-05-09T00:47:29.991Z,28.40
2024-05-09T00:48:06.792Z,26.30
2024-05-09T00:48:41.636Z,85.90
2024-05-09T00:49:15.831Z,72.10
2024-05-09T00:49:49.707Z,134.70
2024-05-09T00:50:29.954Z,110.20
2024-05-09T00:51:09.270Z,53.90
2024-05-09T00:51:43.161Z,72.10
2024-05-09T00:52:16.810Z,73.40
2024-05-09T00:52:50.546Z,98.70
2024-05-09T00:53:24.222Z,61.90
2024-05-09T00:53:57.825Z,18.00
2024-05-09T00:54:31.424Z,16.60
2024-05-09T00:55:05.079Z,25.30
2024-05-09T00:55:39.470Z,22.00
2024-05-09T00:56:13.430Z,43.80
2024-05-09T00:56:49.165Z,51.10
2024-05-09T00:57:23.841Z,14.40
2024-05-09T00:57:57.010Z,12.20
2024-05-09T00:58:30.835Z,13.10
2024-05-09T00:59:04.782Z,14.80
2024-05-09T00:59:38.912Z,14.30
2024-05-09T01:00:22.530Z,12.40
2024-05-09T01:01:06.655Z,20.40
2024-05-09T01:01:41.327Z,25.30
2024-05-09T01:02:16.390Z,41.90
2024-05-09T01:02:49.826Z,45.70
2024-05-09T01:03:23.660Z,18.10
2024-05-09T01:03:57.706Z,18.00
2024-05-09T01:04:31.755Z,32.90
2024-05-09T01:05:05.522Z,30.70
2024-05-09T01:05:39.911Z,20.70
2024-05-09T01:06:13.658Z,18.80
2024-05-09T01:06:48.050Z,15.50
2024-05-09T01:07:21.282Z,14.80
2024-05-09T01:07:54.561Z,266.90
2024-05-09T01:08:28.090Z,67.40
2024-05-09T01:09:01.584Z,45.90
2024-05-09T01:09:35.135Z,56.30
2024-05-09T01:10:14.122Z,55.20
2024-05-09T01:10:58.506Z,32.20
2024-05-09T01:11:41.516Z,12.60
2024-05-09T01:12:15.310Z,35.90
2024-05-09T01:12:48.751Z,13.70
2024-05-09T01:13:22.094Z,23.10
2024-05-09T01:13:55.415Z,14.60
2024-05-09T01:14:28.618Z,48.80
2024-05-09T01:15:01.674Z,150.70
2024-05-09T01:15:35.747Z,305.10
2024-05-09T01:16:09.409Z,256.70
2024-05-09T01:16:43.044Z,206.80
2024-05-09T01:17:16.527Z,120.50
2024-05-09T01:17:50.167Z,72.40
2024-05-09T01:18:24.228Z,100.20
2024-05-09T01:18:59.149Z,223.00
2024-05-09T01:19:33.421Z,221.10
2024-05-09T01:20:10.659Z,427.30
2024-05-09T01:20:47.120Z,99.30
2024-05-09T01:21:20.602Z,191.00
2024-05-09T01:21:54.002Z,54.30
2024-05-09T01:22:29.334Z,17.20
2024-05-09T01:23:09.712Z,20.40
2024-05-09T01:23:43.971Z,17.10
2024-05-09T01:24:17.039Z,265.20
2024-05-09T01:24:51.915Z,143.60
2024-05-09T01:25:25.192Z,246.90
2024-05-09T01:25:58.743Z,130.90
2024-05-09T01:26:32.109Z,389.50
2024-05-09T01:27:05.524Z,429.10
2024-05-09T01:27:38.842Z,231.80
2024-05-09T01:28:12.542Z,225.30
2024-05-09T01:28:45.995Z,66.50
2024-05-09T01:29:19.362Z,75.50
2024-05-09T01:29:52.594Z,14.30
2024-05-09T01:30:32.915Z,14.60
2024-05-09T01:31:08.720Z,30.10
2024-05-09T01:31:42.006Z,19.40
2024-05-09T01:32:15.288Z,54.60
2024-05-09T01:32:48.929Z,123.60
2024-05-09T01:33:22.412Z,81.10
2024-05-09T01:33:55.722Z,167.20
2024-05-09T01:34:29.214Z,354.20
2024-05-09T01:35:02.808Z,406.50
2024-05-09T01:35:36.508Z,295.40
2024-05-09T01:36:10.042Z,221.80
2024-05-09T01:36:44.015Z,185.40
2024-05-09T01:37:17.321Z,237.30
2024-05-09T01:37:51.114Z,383.70
2024-05-09T01:38:24.298Z,437.80
2024-05-09T01:38:57.945Z,226.50
2024-05-09T01:39:31.500Z,395.70
2024-05-09T01:40:09.388Z,396.60
2024-05-09T01:40:49.125Z,302.00
2024-05-09T01:42:19.153Z,93.00
2024-05-09T01:42:57.002Z,69.90
2024-05-09T01:43:32.431Z,80.80
2024-05-09T01:44:08.144Z,145.50
2024-05-09T01:49:09.999Z,22.10
2024-05-09T01:49:43.434Z,82.80
2024-05-09T01:50:16.821Z,90.90
2024-05-09T01:50:55.947Z,19.30
2024-05-09T01:51:28.885Z,74.40
2024-05-09T01:52:02.303Z,24.20
2024-05-09T01:52:38.822Z,33.10
2024-05-09T01:53:15.272Z,46.20
2024-05-09T01:53:48.946Z,11.60
2024-05-09T01:54:22.030Z,11.70
2024-05-09T01:54:55.180Z,11.80
2024-05-09T01:55:28.215Z,11.30
2024-05-09T01:56:01.525Z,12.30
2024-05-09T01:56:34.722Z,11.80
2024-05-09T01:57:07.789Z,11.70
2024-05-09T01:57:40.802Z,12.00
2024-05-09T01:58:13.964Z,12.10
2024-05-09T01:58:47.277Z,11.30
2024-05-09T01:59:20.787Z,12.50
2024-05-09T01:59:54.022Z,11.80
2024-05-09T02:00:36.152Z,11.40
2024-05-09T02:01:12.859Z,49.60
2024-05-09T02:01:56.476Z,66.40
2024-05-09T02:02:30.969Z,115.70
2024-05-09T02:03:04.541Z,64.80
2024-05-09T02:03:37.957Z,36.00
2024-05-09T02:04:11.420Z,18.40
2024-05-09T02:04:47.574Z,42.00
2024-05-09T02:05:21.194Z,20.80
2024-05-09T02:05:54.333Z,76.40
2024-05-09T02:06:30.043Z,5.30
2024-05-09T02:07:03.251Z,82.70
2024-05-09T02:07:36.656Z,51.40
2024-05-09T02:08:14.880Z,111.10
2024-05-09T02:08:48.326Z,40.20
2024-05-09T02:09:21.378Z,82.80
2024-05-09T02:09:54.518Z,307.40
2024-05-09T02:10:32.471Z,365.00
2024-05-09T02:11:08.776Z,335.90
2024-05-09T02:11:47.737Z,268.40
2024-05-09T02:12:20.996Z,208.70
2024-05-09T02:12:53.997Z,95.90
2024-05-09T02:13:28.127Z,196.10
2024-05-09T02:14:01.362Z,259.90
2024-05-09T02:14:34.439Z,180.20
2024-05-09T02:15:07.686Z,185.00
2024-05-09T02:15:40.708Z,98.00
2024-05-09T02:16:14.863Z,92.90
2024-05-09T02:16:48.089Z,52.80
2024-05-09T02:17:21.402Z,33.40
2024-05-09T02:17:54.692Z,12.20
2024-05-09T02:18:28.278Z,12.50
2024-05-09T02:19:01.669Z,10.90
2024-05-09T02:19:34.984Z,13.00
2024-05-09T02:20:10.727Z,11.40
2024-05-09T02:20:46.524Z,11.80
2024-05-09T02:21:19.549Z,11.80
2024-05-09T02:21:52.594Z,11.30
2024-05-09T02:22:25.681Z,12.40
2024-05-09T02:22:58.886Z,11.70
2024-05-09T02:23:32.009Z,11.70
2024-05-09T02:24:05.196Z,11.60
2024-05-09T02:24:38.210Z,12.10
2024-05-09T02:25:11.257Z,11.90
2024-05-09T02:25:44.420Z,15.10
2024-05-09T02:26:17.648Z,16.50
2024-05-09T02:26:50.709Z,31.60
2024-05-09T02:27:23.707Z,12.60
2024-05-09T02:27:56.783Z,11.80
2024-05-09T02:28:30.026Z,12.60
2024-05-09T02:29:03.495Z,12.00
2024-05-09T02:29:36.471Z,12.00
2024-05-09T02:30:18.713Z,11.80
2024-05-09T02:30:59.222Z,12.20
2024-05-09T02:31:32.334Z,12.00
2024-05-09T02:32:06.081Z,13.70
2024-05-09T02:32:39.564Z,12.90
2024-05-09T02:33:14.291Z,12.50
2024-05-09T02:33:48.507Z,12.60
2024-05-09T02:34:23.086Z,13.30
2024-05-09T02:34:56.666Z,12.90
2024-05-09T02:35:30.043Z,12.00
2024-05-09T02:36:03.326Z,11.90
2024-05-09T02:36:36.654Z,13.40
2024-05-09T02:37:09.965Z,17.50
2024-05-09T02:37:43.311Z,14.00
2024-05-09T02:38:16.599Z,11.30
2024-05-09T02:38:49.843Z,13.50
2024-05-09T02:39:22.882Z,12.60
2024-05-09T02:39:55.909Z,13.90
2024-05-09T02:40:36.603Z,29.20
2024-05-09T02:41:12.199Z,195.20
2024-05-09T02:41:45.317Z,256.20
2024-05-09T02:42:18.491Z,116.20
2024-05-09T02:42:51.577Z,98.30
2024-05-09T02:43:25.457Z,145.00
2024-05-09T02:44:31.638Z,40.40
2024-05-09T02:45:05.254Z,141.90
2024-05-09T02:45:39.058Z,91.70
2024-05-09T02:46:12.463Z,113.50
2024-05-09T02:46:45.756Z,14.00
2024-05-09T02:47:19.310Z,12.40
2024-05-09T02:47:52.836Z,12.10
2024-05-09T02:48:26.188Z,16.00
2024-05-09T02:48:59.973Z,16.50
2024-05-09T02:49:33.553Z,12.90
2024-05-09T02:50:08.259Z,15.60
2024-05-09T02:50:42.328Z,28.40
2024-05-09T02:51:15.851Z,22.00
2024-05-09T02:51:49.251Z,47.50
2024-05-09T02:52:22.393Z,60.90
2024-05-09T02:52:55.515Z,47.80
2024-05-09T02:53:29.419Z,33.10
2024-05-09T02:54:02.858Z,34.80
2024-05-09T02:54:36.016Z,17.90
2024-05-09T02:55:09.129Z,13.80
2024-05-09T02:55:43.029Z,9.80
2024-05-09T02:56:16.522Z,17.10
2024-05-09T02:56:49.684Z,10.60
2024-05-09T02:57:22.901Z,9.30
2024-05-09T02:57:56.103Z,11.70
2024-05-09T02:58:29.357Z,10.80
2024-05-09T02:59:02.719Z,12.60
2024-05-09T02:59:36.148Z,9.90
2024-05-09T03:00:15.226Z,10.80
2024-05-09T03:00:52.178Z,10.60
2024-05-09T03:01:25.366Z,12.60
2024-05-09T03:01:58.599Z,11.10
2024-05-09T03:02:31.940Z,10.10
2024-05-09T03:03:06.142Z,9.90
2024-05-09T03:03:43.674Z,10.90
2024-05-09T03:04:16.956Z,16.20
2024-05-09T03:04:50.094Z,30.20
2024-05-09T03:05:23.257Z,49.00
2024-05-09T03:05:56.367Z,21.20
2024-05-09T03:06:29.496Z,20.40
2024-05-09T03:07:02.683Z,12.30
2024-05-09T03:07:35.767Z,11.20
2024-05-09T03:08:09.365Z,16.40
2024-05-09T03:08:48.605Z,36.20
2024-05-09T03:09:23.845Z,19.50
2024-05-09T03:09:56.857Z,10.00
2024-05-09T03:10:35.622Z,42.00
2024-05-09T03:11:20.773Z,8.20
2024-05-09T03:11:54.109Z,10.20
2024-05-09T03:12:28.566Z,8.70
2024-05-09T03:13:09.383Z,8.50
2024-05-09T03:13:42.530Z,8.30
2024-05-09T03:14:18.997Z,21.80
2024-05-09T03:14:52.063Z,38.90
2024-05-09T03:15:25.015Z,12.80
2024-05-09T03:16:00.057Z,60.30
2024-05-09T03:16:38.520Z,89.30
2024-05-09T03:17:11.948Z,56.00
2024-05-09T03:17:45.339Z,72.40
2024-05-09T03:18:18.920Z,71.50
2024-05-09T03:18:52.442Z,111.30
2024-05-09T03:19:25.798Z,110.50
2024-05-09T03:19:59.711Z,74.70
2024-05-09T03:20:35.419Z,34.50
2024-05-09T03:21:09.996Z,49.10
2024-05-09T03:21:43.065Z,70.00
2024-05-09T03:22:16.361Z,49.40
2024-05-09T03:22:49.688Z,53.10
2024-05-09T03:23:23.143Z,34.10
2024-05-09T03:23:56.390Z,41.40
2024-05-09T03:24:29.632Z,52.70
2024-05-09T03:25:02.741Z,37.20
2024-05-09T03:25:36.052Z,34.30
2024-05-09T03:26:16.949Z,34.20
2024-05-09T03:26:50.074Z,18.40
2024-05-09T03:27:24.840Z,80.60
2024-05-09T03:27:57.793Z,40.70
2024-05-09T03:28:30.898Z,27.40
2024-05-09T03:29:04.028Z,13.30
2024-05-09T03:29:37.316Z,25.80
2024-05-09T03:30:15.389Z,45.00
2024-05-09T03:30:52.064Z,11.00
2024-05-09T03:31:25.173Z,87.40
2024-05-09T03:32:00.124Z,52.10
2024-05-09T03:32:33.427Z,81.40
2024-05-09T03:33:15.408Z,62.00
2024-05-09T03:33:49.319Z,75.10
2024-05-09T03:34:22.431Z,61.00
2024-05-09T03:34:55.781Z,55.70
2024-05-09T03:35:29.288Z,18.60
2024-05-09T03:36:09.094Z,26.40
2024-05-09T03:36:44.007Z,22.00
2024-05-09T03:37:17.263Z,36.40
2024-05-09T03:37:50.415Z,93.60
2024-05-09T03:38:23.492Z,111.00
2024-05-09T03:38:56.745Z,76.20
2024-05-09T03:39:30.124Z,356.10
2024-05-09T03:40:05.608Z,135.60
2024-05-09T03:40:48.518Z,51.70
2024-05-09T03:41:22.669Z,96.70
2024-05-09T03:41:55.722Z,81.80
2024-05-09T03:42:29.004Z,46.20
2024-05-09T03:43:02.646Z,12.90
2024-05-09T03:43:36.131Z,15.90
2024-05-09T03:44:09.616Z,13.10
2024-05-09T03:44:42.629Z,25.20
2024-05-09T03:45:15.786Z,13.20
2024-05-09T03:45:50.596Z,21.80
2024-05-09T03:46:23.954Z,12.20
2024-05-09T03:46:57.476Z,15.80
2024-05-09T03:47:32.637Z,25.80
2024-05-09T03:48:06.505Z,33.60
2024-05-09T03:48:39.814Z,143.10
2024-05-09T03:49:14.153Z,196.50
2024-05-09T03:49:47.401Z,233.10
2024-05-09T03:50:29.398Z,270.30
2024-05-09T03:51:07.440Z,111.30
2024-05-09T03:51:40.824Z,278.80
2024-05-09T03:52:14.186Z,369.20
2024-05-09T03:52:48.026Z,343.60
2024-05-09T03:53:22.996Z,214.80
2024-05-09T03:53:56.198Z,246.80
2024-05-09T03:54:29.406Z,235.10
2024-05-09T03:55:03.095Z,214.90
2024-05-09T03:55:36.426Z,223.40
2024-05-09T03:56:11.269Z,209.20
2024-05-09T03:56:44.622Z,213.50
2024-05-09T03:57:18.018Z,97.90
2024-05-09T03:57:51.291Z,129.80
2024-05-09T03:58:27.506Z,130.80
2024-05-09T03:59:01.165Z,48.80
2024-05-09T03:59:34.681Z,75.20
2024-05-09T04:00:17.724Z,74.80
2024-05-09T04:00:59.428Z,54.80
2024-05-09T04:01:32.814Z,85.50
2024-05-09T04:02:06.635Z,23.90
2024-05-09T04:02:43.626Z,77.70
2024-05-09T04:03:17.243Z,116.10
2024-05-09T04:03:50.848Z,91.40
2024-05-09T04:04:24.162Z,60.60
2024-05-09T04:04:57.442Z,156.60
2024-05-09T04:05:31.129Z,89.90
2024-05-09T04:06:04.617Z,113.80
2024-05-09T04:06:37.623Z,101.00
2024-05-09T04:07:11.154Z,134.40
2024-05-09T04:07:44.887Z,85.80
2024-05-09T04:08:18.110Z,103.60
2024-05-09T04:08:51.787Z,108.70
2024-05-09T04:09:24.792Z,52.90
2024-05-09T04:10:33.894Z,113.20
2024-05-09T04:11:08.252Z,70.60
2024-05-09T04:11:41.440Z,90.60
2024-05-09T04:12:14.525Z,71.70
2024-05-09T04:12:47.496Z,115.20
2024-05-09T04:13:20.516Z,125.00
2024-05-09T04:13:53.791Z,136.90
2024-05-09T04:14:27.133Z,94.90
2024-05-09T04:15:00.401Z,142.80
2024-05-09T04:15:33.636Z,34.00
2024-05-09T04:16:09.819Z,122.00
2024-05-09T04:16:42.888Z,49.90
2024-05-09T04:17:16.148Z,69.10
2024-05-09T04:17:51.601Z,89.00
2024-05-09T04:18:25.033Z,89.50
2024-05-09T04:18:58.354Z,99.90
2024-05-09T04:19:31.857Z,101.30
2024-05-09T04:20:08.327Z,23.00
2024-05-09T04:20:41.920Z,75.30
2024-05-09T04:21:15.137Z,62.70
2024-05-09T04:21:48.281Z,117.10
2024-05-09T04:22:22.725Z,54.80
2024-05-09T04:22:55.924Z,41.20
2024-05-09T04:23:29.426Z,69.20
2024-05-09T04:24:02.672Z,83.90
2024-05-09T04:24:35.641Z,64.10
2024-05-09T04:25:08.872Z,126.10
2024-05-09T04:25:47.032Z,130.90
2024-05-09T04:26:20.451Z,49.10
2024-05-09T04:26:53.699Z,41.30
2024-05-09T04:27:26.775Z,67.50
2024-05-09T04:27:59.966Z,76.40
2024-05-09T04:28:33.065Z,58.70
2024-05-09T04:29:06.374Z,31.60
2024-05-09T04:29:40.591Z,37.70
2024-05-09T04:30:21.629Z,56.80
2024-05-09T04:31:03.838Z,60.90
2024-05-09T04:31:37.042Z,21.90
2024-05-09T04:32:10.299Z,61.70
2024-05-09T04:32:44.163Z,74.60
2024-05-09T04:33:20.351Z,23.50
2024-05-09T04:33:54.263Z,82.10
2024-05-09T04:34:27.525Z,82.30
2024-05-09T04:35:00.887Z,90.80
2024-05-09T04:35:34.458Z,53.00
2024-05-09T04:36:07.867Z,56.30
2024-05-09T04:36:43.850Z,33.20
2024-05-09T04:37:18.024Z,32.90
2024-05-09T04:37:51.226Z,20.50
2024-05-09T04:38:24.747Z,8.20
2024-05-09T04:38:58.002Z,8.30
2024-05-09T04:39:31.074Z,8.50
2024-05-09T04:40:07.024Z,7.90
2024-05-09T04:40:42.453Z,8.00
2024-05-09T04:41:15.709Z,8.80
2024-05-09T04:41:48.982Z,7.90
2024-05-09T04:42:22.173Z,8.50
2024-05-09T04:42:55.409Z,9.70
2024-05-09T04:43:28.666Z,8.70
2024-05-09T04:44:01.906Z,9.40
2024-05-09T04:44:35.168Z,8.50
2024-05-09T04:45:08.340Z,11.20
2024-05-09T04:45:41.657Z,10.90
2024-05-09T04:46:14.941Z,8.10
2024-05-09T04:46:48.533Z,11.60
2024-05-09T04:47:21.770Z,10.40
2024-05-09T04:47:55.335Z,9.60
2024-05-09T04:48:29.424Z,9.80
2024-05-09T04:49:03.051Z,10.10
2024-05-09T04:49:36.137Z,8.60
2024-05-09T04:50:11.848Z,8.80
2024-05-09T04:50:47.762Z,8.50
2024-05-09T04:51:20.860Z,8.90
2024-05-09T04:51:53.876Z,9.20
2024-05-09T04:52:27.075Z,9.30
2024-05-09T04:53:00.039Z,9.00
2024-05-09T04:53:33.546Z,8.70
2024-05-09T04:54:08.487Z,9.60
2024-05-09T04:54:44.972Z,9.20
2024-05-09T04:55:17.940Z,8.70
2024-05-09T04:55:51.213Z,8.80
2024-05-09T04:56:24.558Z,10.10
2024-05-09T04:56:57.808Z,8.20
2024-05-09T04:57:30.898Z,9.10
2024-05-09T04:58:05.835Z,7.90
2024-05-09T04:58:40.148Z,8.50
2024-05-09T04:59:13.649Z,8.30
2024-05-09T04:59:47.085Z,9.80
2024-05-09T05:00:28.492Z,8.10
2024-05-09T05:01:08.076Z,9.80
2024-05-09T05:01:41.252Z,8.10
2024-05-09T05:02:15.155Z,8.50
2024-05-09T05:02:48.578Z,9.10
2024-05-09T05:03:22.230Z,9.80
2024-05-09T05:03:56.239Z,9.90
2024-05-09T05:04:31.141Z,7.80
2024-05-09T05:05:05.128Z,8.00
2024-05-09T05:05:40.780Z,8.20
2024-05-09T05:06:14.530Z,8.40
2024-05-09T05:06:47.647Z,9.20
2024-05-09T05:07:21.037Z,8.40
2024-05-09T05:07:54.734Z,8.20
2024-05-09T05:08:28.593Z,8.20
2024-05-09T05:09:02.045Z,9.90
2024-05-09T05:09:35.125Z,9.00
2024-05-09T05:10:14.874Z,11.90
2024-05-09T05:10:54.359Z,8.90
2024-05-09T05:11:27.711Z,7.60
2024-05-09T05:12:02.814Z,9.70
2024-05-09T05:12:54.476Z,8.50
2024-05-09T05:13:33.753Z,9.40
2024-05-09T05:14:07.051Z,7.80
2024-05-09T05:14:40.652Z,8.20
2024-05-09T05:15:14.251Z,8.40
2024-05-09T05:15:48.346Z,8.20
2024-05-09T05:16:21.439Z,8.70
2024-05-09T05:16:55.208Z,7.70
2024-05-09T05:17:28.709Z,8.10
2024-05-09T05:18:02.174Z,9.50
2024-05-09T05:18:35.452Z,8.20
2024-05-09T05:19:12.680Z,7.70
2024-05-09T05:19:47.529Z,9.30
2024-05-09T05:20:27.484Z,8.60
2024-05-09T05:21:06.410Z,7.00
2024-05-09T05:21:39.818Z,8.20
2024-05-09T05:22:12.996Z,10.40
2024-05-09T05:22:46.578Z,8.60
2024-05-09T05:23:21.506Z,8.60
2024-05-09T05:23:55.101Z,7.60
2024-05-09T05:24:28.400Z,8.60
2024-05-09T05:25:01.543Z,8.40
2024-05-09T05:25:34.665Z,8.20
2024-05-09T05:26:07.778Z,8.90
2024-05-09T05:26:41.112Z,9.40
2024-05-09T05:27:14.286Z,8.80
2024-05-09T05:27:47.392Z,9.40
2024-05-09T05:28:21.719Z,10.00
2024-05-09T05:28:55.395Z,9.30
2024-05-09T05:29:28.702Z,8.80
2024-05-09T05:30:02.064Z,9.00
2024-05-09T05:30:37.839Z,9.00
2024-05-09T05:31:11.033Z,10.80
2024-05-09T05:31:44.338Z,8.60
2024-05-09T05:32:17.714Z,10.90
2024-05-09T05:32:51.183Z,9.80
2024-05-09T05:33:24.734Z,9.30
2024-05-09T05:33:57.858Z,11.40
2024-05-09T05:34:31.536Z,11.80
2024-05-09T05:35:05.108Z,9.70
2024-05-09T05:35:39.028Z,10.30
2024-05-09T05:36:12.248Z,9.20
2024-05-09T05:36:45.503Z,9.40
2024-05-09T05:37:18.756Z,9.40
2024-05-09T05:37:51.981Z,8.90
2024-05-09T05:38:27.980Z,9.50
2024-05-09T05:39:02.019Z,9.10
2024-05-09T05:39:35.673Z,9.00
2024-05-09T05:40:14.588Z,9.90
2024-05-09T05:40:51.077Z,10.40
2024-05-09T05:41:24.452Z,9.30
2024-05-09T05:41:57.528Z,10.60
2024-05-09T05:42:30.632Z,11.90
2024-05-09T05:43:11.004Z,9.20
2024-05-09T05:43:44.648Z,9.10
2024-05-09T05:44:18.336Z,11.20
2024-05-09T05:44:51.956Z,10.10
2024-05-09T05:45:25.276Z,11.50
2024-05-09T05:45:59.884Z,9.00
2024-05-09T05:46:33.268Z,9.10
2024-05-09T05:47:06.698Z,10.00
2024-05-09T05:47:40.398Z,10.90
2024-05-09T05:48:17.467Z,8.80
2024-05-09T05:48:51.201Z,10.60
2024-05-09T05:49:24.973Z,10.70
2024-05-09T05:49:58.542Z,9.40
2024-05-09T05:50:36.036Z,9.90
2024-05-09T05:51:11.485Z,9.20
2024-05-09T05:51:44.728Z,7.70
2024-05-09T05:52:17.912Z,9.60
2024-05-09T05:52:51.194Z,10.20
2024-05-09T05:53:24.592Z,12.70
2024-05-09T05:53:58.189Z,9.00
2024-05-09T05:54:31.528Z,8.70
2024-05-09T05:55:05.097Z,8.70
2024-05-09T05:55:40.404Z,9.50
2024-05-09T05:56:14.127Z,9.40
2024-05-09T05:56:47.539Z,9.10
2024-05-09T05:57:20.928Z,9.30
2024-05-09T05:57:54.118Z,10.00
2024-05-09T05:58:27.387Z,11.80
2024-05-09T05:59:00.621Z,9.40
2024-05-09T05:59:33.901Z,8.80
2024-05-09T06:00:09.820Z,9.50
2024-05-09T06:00:46.922Z,9.10
2024-05-09T06:01:20.105Z,12.30
2024-05-09T06:01:53.580Z,9.30
2024-05-09T06:02:28.925Z,8.60
2024-05-09T06:03:02.614Z,8.70
2024-05-09T06:03:35.885Z,11.30
2024-05-09T06:04:09.411Z,10.50
2024-05-09T06:04:43.368Z,11.40
2024-05-09T06:05:17.951Z,9.10
2024-05-09T06:05:53.758Z,10.20
2024-05-09T06:06:27.076Z,9.60
2024-05-09T06:07:00.415Z,9.00
2024-05-09T06:07:33.780Z,8.40
2024-05-09T06:08:07.550Z,10.10
2024-05-09T06:08:41.119Z,8.00
2024-05-09T06:09:14.664Z,8.00
2024-05-09T06:09:49.945Z,9.90
2024-05-09T06:10:29.689Z,9.30
2024-05-09T06:11:08.549Z,9.00
2024-05-09T06:11:42.783Z,9.10
2024-05-09T06:12:16.124Z,9.10
2024-05-09T06:12:49.396Z,10.10
2024-05-09T06:13:22.946Z,8.70
2024-05-09T06:13:56.117Z,8.60
2024-05-09T06:14:29.485Z,9.10
2024-05-09T06:15:03.091Z,9.80
2024-05-09T06:15:36.544Z,9.10
2024-05-09T06:16:10.158Z,12.20
2024-05-09T06:16:43.696Z,8.90
2024-05-09T06:17:17.042Z,10.50
2024-05-09T06:17:50.383Z,9.70
2024-05-09T06:18:24.092Z,9.80
2024-05-09T06:18:57.677Z,8.10
2024-05-09T06:19:31.095Z,10.80
2024-05-09T06:20:09.087Z,9.00
2024-05-09T06:20:46.722Z,8.80
2024-05-09T06:21:20.150Z,9.60
2024-05-09T06:21:53.282Z,9.30
2024-05-09T06:22:26.641Z,11.30
2024-05-09T06:22:59.944Z,10.30
2024-05-09T06:23:33.445Z,8.50
2024-05-09T06:24:07.205Z,11.60
2024-05-09T06:24:40.676Z,10.20
2024-05-09T06:25:13.927Z,9.90
2024-05-09T06:25:47.079Z,8.70
2024-05-09T06:26:20.489Z,8.20
2024-05-09T06:26:53.826Z,8.20
2024-05-09T06:27:27.104Z,8.30
2024-05-09T06:28:01.687Z,9.90
2024-05-09T06:28:35.674Z,9.60
2024-05-09T06:29:08.811Z,8.30
2024-05-09T06:29:41.986Z,9.30
2024-05-09T06:30:25.644Z,10.80
2024-05-09T06:31:04.227Z,9.30
2024-05-09T06:31:43.558Z,9.60
2024-05-09T06:32:16.690Z,8.60
2024-05-09T06:32:50.240Z,8.40
2024-05-09T06:33:23.513Z,9.20
2024-05-09T06:33:56.922Z,9.10
2024-05-09T06:34:30.358Z,10.10
2024-05-09T06:35:03.980Z,8.20
2024-05-09T06:35:37.487Z,7.70
2024-05-09T06:36:10.944Z,8.90
2024-05-09T06:36:44.132Z,9.70
2024-05-09T06:37:17.400Z,10.90
2024-05-09T06:37:50.853Z,8.70
2024-05-09T06:38:24.313Z,7.90
2024-05-09T06:38:57.526Z,7.60
2024-05-09T06:39:30.861Z,7.80
2024-05-09T06:40:05.535Z,8.10
2024-05-09T06:40:42.598Z,8.70
2024-05-09T06:41:17.343Z,10.50
2024-05-09T06:41:51.059Z,8.20
2024-05-09T06:42:24.480Z,7.20
2024-05-09T06:42:59.554Z,9.10
2024-05-09T06:43:32.824Z,9.10
2024-05-09T06:44:06.057Z,8.30
2024-05-09T06:44:39.463Z,8.30
2024-05-09T06:45:15.646Z,8.30
2024-05-09T06:45:50.449Z,9.80
2024-05-09T06:46:23.940Z,7.60
2024-05-09T06:46:59.382Z,7.60
2024-05-09T06:47:34.263Z,11.40
2024-05-09T06:48:10.046Z,8.80
2024-05-09T06:48:43.806Z,11.40
2024-05-09T06:49:17.190Z,7.60
2024-05-09T06:49:50.587Z,6.90
2024-05-09T06:50:28.288Z,10.10
2024-05-09T06:51:05.036Z,9.60
2024-05-09T06:51:38.596Z,10.00
2024-05-09T06:52:11.779Z,12.50
2024-05-09T06:52:49.361Z,8.40
2024-05-09T06:53:23.775Z,9.70
2024-05-09T06:53:57.188Z,10.40
2024-05-09T06:54:31.150Z,7.90
2024-05-09T06:55:04.520Z,7.60
2024-05-09T06:55:38.065Z,7.10
2024-05-09T06:56:11.553Z,8.90
2024-05-09T06:56:47.501Z,9.20
2024-05-09T06:57:22.200Z,9.30
2024-05-09T06:57:55.549Z,8.70
2024-05-09T06:58:28.623Z,6.80
2024-05-09T06:59:04.938Z,7.60
2024-05-09T06:59:38.495Z,8.40
2024-05-09T07:00:15.668Z,8.40
2024-05-09T07:00:52.613Z,8.00
2024-05-09T07:01:25.844Z,7.40
2024-05-09T07:01:59.177Z,8.20
2024-05-09T07:02:32.490Z,8.20
2024-05-09T07:03:10.122Z,8.20
2024-05-09T07:03:46.394Z,7.00
2024-05-09T07:04:20.179Z,8.20
2024-05-09T07:04:53.548Z,7.50
2024-05-09T07:05:26.927Z,10.00
2024-05-09T07:06:00.465Z,7.20
2024-05-09T07:06:34.168Z,8.30
2024-05-09T07:07:09.343Z,8.60
2024-05-09T07:07:42.484Z,8.60
2024-05-09T07:08:16.075Z,7.20
2024-05-09T07:08:51.875Z,7.50
2024-05-09T07:09:25.443Z,6.60
2024-05-09T07:09:58.688Z,7.90
2024-05-09T07:10:35.159Z,8.60
2024-05-09T07:11:09.370Z,10.30
2024-05-09T07:11:43.115Z,9.50
2024-05-09T07:12:16.759Z,8.00
2024-05-09T07:12:50.118Z,9.30
2024-05-09T07:13:23.365Z,6.40
2024-05-09T07:13:56.714Z,9.20
2024-05-09T07:14:30.213Z,8.80
2024-05-09T07:15:03.911Z,10.90
2024-05-09T07:15:37.061Z,8.20
2024-05-09T07:16:10.057Z,9.50
2024-05-09T07:16:43.730Z,7.40
2024-05-09T07:17:18.017Z,8.40
2024-05-09T07:17:54.059Z,8.20
2024-05-09T07:18:27.940Z,9.40
2024-05-09T07:19:01.704Z,10.90
2024-05-09T07:19:35.124Z,10.30
2024-05-09T07:20:16.151Z,8.20
2024-05-09T07:20:53.767Z,7.70
2024-05-09T07:21:26.926Z,9.20
2024-05-09T07:22:00.359Z,7.10
2024-05-09T07:22:33.466Z,8.40
2024-05-09T07:23:10.057Z,7.00
2024-05-09T07:23:46.919Z,7.60
2024-05-09T07:24:20.473Z,7.50
2024-05-09T07:24:53.898Z,7.90
2024-05-09T07:25:29.989Z,9.50
2024-05-09T07:26:03.425Z,9.60
2024-05-09T07:26:37.016Z,8.90
2024-05-09T07:27:11.516Z,9.40
2024-05-09T07:27:44.783Z,9.50
2024-05-09T07:28:19.923Z,10.10
2024-05-09T07:28:53.419Z,9.60
2024-05-09T07:29:26.953Z,9.90
2024-05-09T07:30:00.574Z,9.40
2024-05-09T07:30:35.011Z,10.70
2024-05-09T07:31:09.084Z,8.40
2024-05-09T07:31:42.788Z,9.70
2024-05-09T07:32:16.488Z,10.60